createdAt,value
2023-06-29T00:01:08.406Z,101751.53
2023-06-29T00:03:38.783Z,101770.97
2023-06-29T00:06:08.244Z,101775.78
2023-06-29T00:08:37.999Z,101764.28
2023-06-29T00:11:06.504Z,101768.69
2023-06-29T00:13:34.651Z,101764.94
2023-06-29T00:16:03.271Z,101752.41
2023-06-29T00:18:31.651Z,101766.56
2023-06-29T00:21:02.152Z,101763.47
2023-06-29T00:23:32.803Z,101768.47
2023-06-29T00:26:01.687Z,101770.56
2023-06-29T00:28:29.984Z,101767.63
2023-06-29T00:30:58.322Z,101767.22
2023-06-29T00:33:30.579Z,101764.72
2023-06-29T00:36:00.162Z,101747.78
2023-06-29T00:38:28.314Z,101751.34
2023-06-29T00:40:57.819Z,101765.56
2023-06-29T00:43:26.877Z,101756.78
2023-06-29T00:45:55.155Z,101761.59
2023-06-29T00:48:23.368Z,101764.31
2023-06-29T00:50:51.746Z,101752.81
2023-06-29T00:53:21.338Z,101740.72
2023-06-29T00:55:50.822Z,101758.44
2023-06-29T00:58:22.088Z,101737.34
2023-06-29T01:00:50.400Z,101743.63
2023-06-29T01:03:19.042Z,101712.50
2023-06-29T01:05:49.172Z,101729.84
2023-06-29T01:08:24.807Z,101741.94
2023-06-29T01:10:53.642Z,101733.59
2023-06-29T01:13:24.095Z,101743.00
2023-06-29T01:15:54.235Z,101743.41
2023-06-29T01:18:25.069Z,101738.59
2023-06-29T01:20:55.243Z,101738.81
2023-06-29T01:23:27.897Z,101694.34
2023-06-29T01:25:58.854Z,101719.19
2023-06-29T01:28:30.198Z,101715.22
2023-06-29T01:30:58.437Z,101725.25
2023-06-29T01:33:28.222Z,101718.75
2023-06-29T01:36:06.160Z,101718.78
2023-06-29T01:38:45.866Z,101721.28
2023-06-29T01:41:18.172Z,101705.63
2023-06-29T01:43:47.361Z,101716.69
2023-06-29T01:46:17.222Z,101718.56
2023-06-29T01:48:47.203Z,101703.34
2023-06-29T01:51:15.971Z,101714.38
2023-06-29T01:53:44.213Z,101702.47
2023-06-29T01:56:12.683Z,101712.50
2023-06-29T01:58:42.356Z,101708.75
2023-06-29T02:01:10.781Z,101711.88
2023-06-29T02:03:39.242Z,101706.47
2023-06-29T02:06:09.273Z,101677.44
2023-06-29T02:08:39.987Z,101698.53
2023-06-29T02:11:09.912Z,101707.28
2023-06-29T02:13:38.189Z,101694.31
2023-06-29T02:16:07.895Z,101697.47
2023-06-29T02:18:36.090Z,101700.38
2023-06-29T02:21:04.392Z,101697.88
2023-06-29T02:23:32.552Z,101696.63
2023-06-29T02:26:00.755Z,101704.19
2023-06-29T02:28:29.065Z,101696.44
2023-06-29T02:30:57.443Z,101692.84
2023-06-29T02:33:27.394Z,101696.41
2023-06-29T02:35:55.817Z,101692.44
2023-06-29T02:38:24.154Z,101695.34
2023-06-29T02:40:52.431Z,101684.69
2023-06-29T02:43:20.816Z,101674.88
2023-06-29T02:45:49.070Z,101686.75
2023-06-29T02:48:17.690Z,101681.72
2023-06-29T02:50:47.799Z,101679.03
2023-06-29T02:53:17.681Z,101650.03
2023-06-29T02:55:46.241Z,101671.94
2023-06-29T02:58:14.733Z,101662.53
2023-06-29T03:00:43.152Z,101683.66
2023-06-29T03:03:11.875Z,101685.34
2023-06-29T03:05:40.495Z,101661.72
2023-06-29T03:08:10.804Z,101678.81
2023-06-29T03:10:39.137Z,101638.53
2023-06-29T03:13:07.485Z,101675.72
2023-06-29T03:15:36.013Z,101669.25
2023-06-29T03:18:05.712Z,101669.63
2023-06-29T03:20:33.955Z,101679.44
2023-06-29T03:23:02.155Z,101645.22
2023-06-29T03:25:31.814Z,101668.00
2023-06-29T03:28:00.061Z,101663.41
2023-06-29T03:30:28.554Z,101660.06
2023-06-29T03:32:59.585Z,101658.19
2023-06-29T03:35:27.913Z,101653.22
2023-06-29T03:37:56.391Z,101650.69
2023-06-29T03:40:24.682Z,101653.22
2023-06-29T03:42:54.286Z,101649.63
2023-06-29T03:45:22.811Z,101654.63
2023-06-29T03:47:51.085Z,101646.28
2023-06-29T03:50:19.848Z,101632.00
2023-06-29T03:52:48.109Z,101650.66
2023-06-29T03:55:18.820Z,101645.91
2023-06-29T03:57:46.990Z,101644.41
2023-06-29T04:00:17.686Z,101624.63
2023-06-29T04:02:45.933Z,101636.50
2023-06-29T04:05:14.622Z,101637.34
2023-06-29T04:07:42.889Z,101645.50
2023-06-29T04:10:12.034Z,101643.19
2023-06-29T04:12:40.557Z,101645.91
2023-06-29T04:15:10.800Z,101648.00
2023-06-29T04:17:40.557Z,101614.19
2023-06-29T04:20:10.708Z,101642.16
2023-06-29T04:22:39.245Z,101621.69
2023-06-29T04:25:08.924Z,101632.31
2023-06-29T04:27:37.398Z,101633.97
2023-06-29T04:30:07.190Z,101624.63
2023-06-29T04:32:36.263Z,101616.91
2023-06-29T04:35:07.412Z,101625.88
2023-06-29T04:37:41.970Z,101631.09
2023-06-29T04:40:11.799Z,101601.47
2023-06-29T04:42:44.979Z,101641.72
2023-06-29T04:45:20.333Z,101624.66
2023-06-29T04:47:51.540Z,101602.31
2023-06-29T04:50:26.556Z,101629.84
2023-06-29T04:52:55.932Z,101624.41
2023-06-29T04:55:25.099Z,101619.84
2023-06-29T04:57:53.445Z,101634.66
2023-06-29T05:00:21.947Z,101638.63
2023-06-29T05:02:50.263Z,101638.63
2023-06-29T05:05:20.075Z,101635.09
2023-06-29T05:07:48.482Z,101618.56
2023-06-29T05:10:16.731Z,101623.81
2023-06-29T05:12:44.971Z,101622.97
2023-06-29T05:15:13.694Z,101629.00
2023-06-29T05:17:42.227Z,101630.47
2023-06-29T05:20:12.514Z,101623.81
2023-06-29T05:22:42.331Z,101621.94
2023-06-29T05:25:11.344Z,101616.50
2023-06-29T05:27:41.188Z,101615.03
2023-06-29T05:30:11.410Z,101620.25
2023-06-29T05:32:40.229Z,101589.38
2023-06-29T05:35:09.288Z,101616.50
2023-06-29T05:37:37.605Z,101623.38
2023-06-29T05:40:09.968Z,101627.34
2023-06-29T05:42:38.659Z,101609.59
2023-06-29T05:45:08.381Z,101621.28
2023-06-29T05:47:36.706Z,101625.66
2023-06-29T05:50:05.945Z,101611.47
2023-06-29T05:52:35.197Z,101633.19
2023-06-29T05:55:04.856Z,101623.81
2023-06-29T05:57:34.563Z,101631.09
2023-06-29T06:00:07.044Z,101617.94
2023-06-29T06:02:35.413Z,101622.97
2023-06-29T06:05:07.004Z,101618.75
2023-06-29T06:07:36.236Z,101616.91
2023-06-29T06:10:06.048Z,101617.56
2023-06-29T06:12:35.715Z,101626.47
2023-06-29T06:15:04.149Z,101601.47
2023-06-29T06:17:32.446Z,101607.47
2023-06-29T06:20:00.760Z,101629.63
2023-06-29T06:22:28.986Z,101617.09
2023-06-29T06:24:57.392Z,101629.75
2023-06-29T06:27:26.409Z,101628.03
2023-06-29T06:29:56.145Z,101629.59
2023-06-29T06:32:25.701Z,101624.56
2023-06-29T06:34:54.298Z,101622.66
2023-06-29T06:37:23.005Z,101610.41
2023-06-29T06:39:51.204Z,101618.09
2023-06-29T06:42:19.670Z,101621.16
2023-06-29T06:44:57.137Z,101620.38
2023-06-29T06:47:25.596Z,101614.22
2023-06-29T06:49:53.813Z,101603.19
2023-06-29T06:52:22.063Z,101622.47
2023-06-29T06:54:50.408Z,101608.44
2023-06-29T06:57:18.705Z,101604.75
2023-06-29T06:59:47.214Z,101626.75
2023-06-29T07:02:17.423Z,101604.63
2023-06-29T07:04:45.871Z,101622.06
2023-06-29T07:07:14.136Z,101614.53
2023-06-29T07:09:42.401Z,101621.09
2023-06-29T07:12:11.943Z,101635.69
2023-06-29T07:14:40.186Z,101638.78
2023-06-29T07:17:08.734Z,101630.09
2023-06-29T07:24:40.717Z,101620.81
2023-06-29T07:27:09.137Z,101610.69
2023-06-29T07:29:37.463Z,101615.28
2023-06-29T07:32:06.676Z,101614.28
2023-06-29T07:34:35.182Z,101618.16
2023-06-29T07:37:06.439Z,101612.38
2023-06-29T07:39:35.472Z,101613.63
2023-06-29T07:42:04.178Z,101564.41
2023-06-29T07:44:32.540Z,101612.59
2023-06-29T07:47:01.301Z,101592.06
2023-06-29T07:49:29.637Z,101593.97
2023-06-29T07:51:59.775Z,101606.41
2023-06-29T07:54:29.700Z,101605.84
2023-06-29T07:59:29.112Z,101602.22
2023-06-29T08:01:57.528Z,101601.63
2023-06-29T08:06:57.082Z,101589.94
2023-06-29T08:09:25.392Z,101585.28
2023-06-29T08:11:54.927Z,101589.56
2023-06-29T08:14:23.100Z,101579.19
2023-06-29T08:16:51.659Z,101596.75
2023-06-29T08:19:20.096Z,101594.03
2023-06-29T08:21:49.222Z,101582.25
2023-06-29T08:24:17.987Z,101595.50
2023-06-29T08:26:46.519Z,101580.50
2023-06-29T08:29:16.032Z,101599.03
2023-06-29T08:31:44.322Z,101595.94
2023-06-29T08:34:12.961Z,101594.72
2023-06-29T08:36:41.513Z,101599.00
2023-06-29T08:39:10.205Z,101589.78
2023-06-29T08:41:38.752Z,101604.50
2023-06-29T08:44:08.472Z,101590.94
2023-06-29T08:46:40.021Z,101593.72
2023-06-29T08:49:09.915Z,101597.16
2023-06-29T08:51:41.620Z,101593.94
2023-06-29T08:54:10.653Z,101600.50
2023-06-29T08:56:39.087Z,101593.00
2023-06-29T08:59:07.706Z,101598.59
2023-06-29T09:01:38.732Z,101599.59
2023-06-29T09:04:07.490Z,101591.28
2023-06-29T09:06:36.017Z,101585.00
2023-06-29T09:09:04.893Z,101582.50
2023-06-29T09:11:34.802Z,101585.16
2023-06-29T09:14:06.510Z,101595.81
2023-06-29T09:16:35.962Z,101561.72
2023-06-29T09:19:06.775Z,101582.84
2023-06-29T09:21:35.148Z,101556.88
2023-06-29T09:24:06.200Z,101587.53
2023-06-29T09:26:36.581Z,101581.06
2023-06-29T09:29:05.126Z,101572.03
2023-06-29T09:31:36.702Z,101591.47
2023-06-29T09:34:20.781Z,101594.28
2023-06-29T09:36:50.504Z,101583.53
2023-06-29T09:39:19.936Z,101591.75
2023-06-29T09:41:49.802Z,101569.22
2023-06-29T09:44:21.346Z,101587.50
2023-06-29T09:49:24.644Z,101568.44
2023-06-29T09:52:05.055Z,101585.81
2023-06-29T09:54:36.622Z,101593.44
2023-06-29T09:57:06.034Z,101554.50
2023-06-29T09:59:36.240Z,101574.34
2023-06-29T10:02:05.297Z,101571.31
2023-06-29T10:04:35.401Z,101556.53
2023-06-29T10:07:11.606Z,101567.81
2023-06-29T10:09:43.656Z,101574.88
2023-06-29T10:12:15.324Z,101572.50
2023-06-29T10:14:46.896Z,101563.56
2023-06-29T10:17:21.916Z,101558.94
2023-06-29T10:19:53.890Z,101562.91
2023-06-29T10:22:23.916Z,101570.69
2023-06-29T10:24:56.936Z,101573.59
2023-06-29T10:27:31.775Z,101576.00
2023-06-29T10:30:05.138Z,101579.00
2023-06-29T10:32:35.644Z,101571.63
2023-06-29T10:35:11.556Z,101563.72
2023-06-29T10:37:43.060Z,101556.44
2023-06-29T10:40:16.263Z,101545.25
2023-06-29T10:42:53.611Z,101540.03
2023-06-29T10:45:44.413Z,101552.28
2023-06-29T10:48:31.305Z,101551.66
2023-06-29T10:51:09.234Z,101544.66
2023-06-29T10:53:37.823Z,101547.28
2023-06-29T10:56:06.473Z,101543.16
2023-06-29T10:58:39.194Z,101545.03
2023-06-29T11:01:07.634Z,101516.38
2023-06-29T11:03:37.231Z,101541.16
2023-06-29T11:06:08.566Z,101535.72
2023-06-29T11:08:37.205Z,101528.34
2023-06-29T11:11:15.836Z,101527.94
2023-06-29T11:13:46.557Z,101523.97
2023-06-29T11:16:15.485Z,101532.19
2023-06-29T11:18:50.964Z,101551.22
2023-06-29T11:21:22.317Z,101538.91
2023-06-29T11:23:54.309Z,101528.06
2023-06-29T11:26:22.933Z,101511.16
2023-06-29T11:28:51.505Z,101536.13
2023-06-29T11:31:21.293Z,101537.09
2023-06-29T11:33:50.086Z,101537.09
2023-06-29T11:36:30.519Z,101533.59
2023-06-29T11:39:09.876Z,101538.06
2023-06-29T11:41:39.534Z,101533.22
2023-06-29T11:44:11.597Z,101534.41
2023-06-29T11:46:46.650Z,101539.97
2023-06-29T11:49:21.872Z,101532.97
2023-06-29T11:51:53.383Z,101541.03
2023-06-29T11:54:22.146Z,101535.50
2023-06-29T11:56:51.171Z,101546.47
2023-06-29T11:59:23.006Z,101538.38
2023-06-29T12:01:51.871Z,101540.09
2023-06-29T12:04:20.243Z,101534.69
2023-06-29T12:06:54.618Z,101522.91
2023-06-29T12:09:29.913Z,101532.63
2023-06-29T12:11:58.828Z,101521.16
2023-06-29T12:14:30.391Z,101523.88
2023-06-29T12:19:35.830Z,101486.50
2023-06-29T12:22:07.255Z,101526.75
2023-06-29T12:24:35.652Z,101543.34
2023-06-29T12:27:04.343Z,101541.63
2023-06-29T12:29:32.856Z,101544.34
2023-06-29T12:32:02.078Z,101539.59
2023-06-29T12:34:32.709Z,101551.91
2023-06-29T12:37:01.982Z,101533.13
2023-06-29T12:39:31.670Z,101529.19
2023-06-29T12:42:00.203Z,101554.91
2023-06-29T12:44:28.754Z,101562.50
2023-06-29T12:46:57.790Z,101552.13
2023-06-29T12:49:27.634Z,101536.31
2023-06-29T12:51:56.389Z,101532.38
2023-06-29T12:54:25.452Z,101529.34
2023-06-29T12:56:55.192Z,101553.78
2023-06-29T12:59:23.688Z,101544.06
2023-06-29T13:01:52.027Z,101550.13
2023-06-29T13:04:20.736Z,101557.13
2023-06-29T13:06:49.019Z,101547.97
2023-06-29T13:09:17.367Z,101548.78
2023-06-29T13:11:45.880Z,101550.72
2023-06-29T13:14:15.600Z,101546.78
2023-06-29T13:16:44.380Z,101541.72
2023-06-29T13:19:13.134Z,101540.25
2023-06-29T13:21:41.981Z,101553.56
2023-06-29T13:24:10.456Z,101553.50
2023-06-29T13:26:39.441Z,101538.41
2023-06-29T13:29:08.065Z,101543.00
2023-06-29T13:31:38.581Z,101554.50
2023-06-29T13:34:07.394Z,101531.22
2023-06-29T13:36:36.147Z,101552.53
2023-06-29T13:39:04.875Z,101528.94
2023-06-29T13:41:38.310Z,101532.00
2023-06-29T13:44:08.769Z,101519.53
2023-06-29T13:46:38.896Z,101546.47
2023-06-29T13:49:07.379Z,101518.19
2023-06-29T13:51:37.412Z,101553.69
2023-06-29T13:54:07.791Z,101536.34
2023-06-29T13:56:39.085Z,101526.91
2023-06-29T13:59:09.803Z,101534.63
2023-06-29T14:01:42.236Z,101529.47
2023-06-29T14:04:12.551Z,101544.66
2023-06-29T14:06:43.985Z,101521.28
2023-06-29T14:09:13.916Z,101537.53
2023-06-29T14:11:42.857Z,101546.56
2023-06-29T14:14:11.596Z,101529.94
2023-06-29T14:16:41.720Z,101537.41
2023-06-29T14:19:10.195Z,101530.84
2023-06-29T14:21:38.712Z,101532.97
2023-06-29T14:24:07.370Z,101530.59
2023-06-29T14:26:35.757Z,101546.72
2023-06-29T14:29:04.422Z,101541.53
2023-06-29T14:31:33.063Z,101524.84
2023-06-29T14:34:02.741Z,101545.47
2023-06-29T14:36:31.302Z,101539.28
2023-06-29T14:39:00.926Z,101531.84
2023-06-29T14:41:29.190Z,101529.09
2023-06-29T14:43:57.402Z,101532.81
2023-06-29T14:46:25.779Z,101532.91
2023-06-29T14:48:54.237Z,101501.75
2023-06-29T14:51:23.866Z,101544.75
2023-06-29T14:53:52.394Z,101547.03
2023-06-29T14:56:20.674Z,101535.66
2023-06-29T14:58:49.125Z,101495.31
2023-06-29T15:01:17.592Z,101541.22
2023-06-29T15:03:46.951Z,101544.72
2023-06-29T15:06:16.831Z,101526.38
2023-06-29T15:08:46.536Z,101540.50
2023-06-29T15:11:14.861Z,101536.97
2023-06-29T15:13:43.621Z,101537.97
2023-06-29T15:16:11.988Z,101536.09
2023-06-29T15:18:50.438Z,101515.22
2023-06-29T15:21:27.025Z,101526.41
2023-06-29T15:23:56.929Z,101539.53
2023-06-29T15:26:25.305Z,101541.03
2023-06-29T15:28:53.561Z,101549.06
2023-06-29T15:31:21.939Z,101529.81
2023-06-29T15:33:50.366Z,101550.13
2023-06-29T15:36:18.915Z,101539.97
2023-06-29T15:38:47.588Z,101547.22
2023-06-29T15:41:17.499Z,101540.94
2023-06-29T15:43:46.456Z,101522.94
2023-06-29T15:46:15.707Z,101534.97
2023-06-29T15:48:44.078Z,101538.53
2023-06-29T15:51:12.449Z,101540.00
2023-06-29T15:53:40.664Z,101545.19
2023-06-29T15:56:08.845Z,101522.03
2023-06-29T15:58:39.778Z,101539.28
2023-06-29T16:01:08.660Z,101545.63
2023-06-29T16:03:37.208Z,101541.56
2023-06-29T16:06:05.693Z,101538.53
2023-06-29T16:08:34.077Z,101528.69
2023-06-29T16:11:02.401Z,101544.00
2023-06-29T16:13:30.645Z,101539.16
2023-06-29T16:16:00.420Z,101536.59
2023-06-29T16:18:28.796Z,101547.19
2023-06-29T16:20:57.056Z,101560.97
2023-06-29T16:23:25.353Z,101552.16
2023-06-29T16:25:53.708Z,101557.97
2023-06-29T16:28:21.964Z,101564.66
2023-06-29T16:30:50.403Z,101537.22
2023-06-29T16:33:20.052Z,101554.75
2023-06-29T16:35:48.561Z,101548.31
2023-06-29T16:38:16.819Z,101547.25
2023-06-29T16:40:47.029Z,101546.34
2023-06-29T16:43:15.431Z,101578.03
2023-06-29T16:45:46.805Z,101575.19
2023-06-29T16:48:15.318Z,101569.97
2023-06-29T16:50:45.046Z,101578.25
2023-06-29T16:53:13.385Z,101590.88
2023-06-29T16:55:41.956Z,101590.66
2023-06-29T16:58:10.439Z,101600.41
2023-06-29T17:00:38.603Z,101596.09
2023-06-29T17:03:06.903Z,101584.69
2023-06-29T17:05:35.128Z,101601.00
2023-06-29T17:08:05.383Z,101575.47
2023-06-29T17:10:33.588Z,101603.25
2023-06-29T17:13:01.893Z,101600.56
2023-06-29T17:15:30.240Z,101597.97
2023-06-29T17:17:58.765Z,101594.50
2023-06-29T17:20:27.413Z,101610.25
2023-06-29T17:22:55.609Z,101612.28
2023-06-29T17:25:25.270Z,101587.41
2023-06-29T17:27:53.464Z,101617.06
2023-06-29T17:30:24.750Z,101605.59
2023-06-29T17:32:53.140Z,101609.66
2023-06-29T17:35:21.359Z,101600.75
2023-06-29T17:37:49.511Z,101607.81
2023-06-29T17:40:17.866Z,101602.19
2023-06-29T17:42:47.444Z,101624.06
2023-06-29T17:45:16.037Z,101622.47
2023-06-29T17:47:44.594Z,101633.00
2023-06-29T17:50:13.198Z,101633.13
2023-06-29T17:52:41.458Z,101616.34
2023-06-29T17:55:10.489Z,101640.25
2023-06-29T17:57:38.755Z,101645.41
2023-06-29T18:00:10.324Z,101646.97
2023-06-29T18:02:39.342Z,101648.47
2023-06-29T18:05:08.750Z,101648.19
2023-06-29T18:07:37.183Z,101643.38
2023-06-29T18:10:08.226Z,101630.91
2023-06-29T18:12:38.164Z,101637.59
2023-06-29T18:15:09.956Z,101636.09
2023-06-29T18:17:38.498Z,101653.13
2023-06-29T18:20:08.664Z,101642.03
2023-06-29T18:22:37.119Z,101651.59
2023-06-29T18:25:06.511Z,101657.16
2023-06-29T18:27:34.882Z,101620.97
2023-06-29T18:30:03.500Z,101669.16
2023-06-29T18:32:33.086Z,101666.47
2023-06-29T18:35:01.656Z,101678.81
2023-06-29T18:37:30.207Z,101684.94
2023-06-29T18:39:58.520Z,101673.00
2023-06-29T18:42:26.979Z,101670.69
2023-06-29T18:44:55.194Z,101673.69
2023-06-29T18:47:23.455Z,101671.66
2023-06-29T18:49:53.230Z,101675.59
2023-06-29T18:52:22.571Z,101642.19
2023-06-29T18:54:52.964Z,101669.28
2023-06-29T18:57:21.363Z,101650.59
2023-06-29T18:59:49.942Z,101661.38
2023-06-29T19:02:18.285Z,101655.91
2023-06-29T19:04:46.793Z,101664.25
2023-06-29T19:07:17.806Z,101679.09
2023-06-29T19:09:47.559Z,101660.38
2023-06-29T19:12:16.259Z,101676.25
2023-06-29T19:14:44.626Z,101631.34
2023-06-29T19:17:12.933Z,101663.94
2023-06-29T19:19:42.969Z,101652.16
2023-06-29T19:22:11.210Z,101667.25
2023-06-29T19:24:41.149Z,101667.09
2023-06-29T19:27:09.717Z,101625.13
2023-06-29T19:29:37.981Z,101681.69
2023-06-29T19:32:08.055Z,101685.19
2023-06-29T19:34:36.451Z,101692.16
2023-06-29T19:37:05.604Z,101681.38
2023-06-29T19:39:33.905Z,101683.13
2023-06-29T19:42:05.180Z,101683.63
2023-06-29T19:44:33.530Z,101661.97
2023-06-29T19:47:01.940Z,101682.28
2023-06-29T19:49:30.379Z,101678.56
2023-06-29T19:51:59.196Z,101675.94
2023-06-29T19:54:27.869Z,101692.16
2023-06-29T19:56:56.298Z,101695.63
2023-06-29T19:59:26.211Z,101691.19
2023-06-29T20:01:56.485Z,101705.00
2023-06-29T20:04:24.826Z,101689.53
2023-06-29T20:06:53.374Z,101711.22
2023-06-29T20:09:21.660Z,101713.16
2023-06-29T20:11:49.880Z,101697.16
2023-06-29T20:14:18.445Z,101684.22
2023-06-29T20:16:48.040Z,101712.06
2023-06-29T20:19:17.664Z,101710.03
2023-06-29T20:21:46.309Z,101715.31
2023-06-29T20:24:14.578Z,101725.63
2023-06-29T20:26:45.983Z,101705.19
2023-06-29T20:29:15.482Z,101711.25
2023-06-29T20:31:43.922Z,101723.09
2023-06-29T20:34:16.071Z,101722.66
2023-06-29T20:36:44.248Z,101719.44
2023-06-29T20:39:12.692Z,101707.16
2023-06-29T20:41:40.986Z,101693.19
2023-06-29T20:44:13.336Z,101706.00
2023-06-29T20:46:42.605Z,101704.56
2023-06-29T20:49:11.157Z,101709.91
2023-06-29T20:51:40.742Z,101734.25
2023-06-29T20:54:09.361Z,101731.16
2023-06-29T20:56:37.747Z,101718.03
2023-06-29T20:59:06.222Z,101723.41
2023-06-29T21:01:34.714Z,101724.38
2023-06-29T21:04:03.095Z,101741.31
2023-06-29T21:06:31.609Z,101733.69
2023-06-29T21:09:01.451Z,101740.38
2023-06-29T21:13:59.557Z,101731.28
2023-06-29T21:16:28.102Z,101732.06
2023-06-29T21:18:57.080Z,101713.81
2023-06-29T21:21:27.225Z,101711.00
2023-06-29T21:23:56.611Z,101721.09
2023-06-29T21:26:26.480Z,101710.25
2023-06-29T21:28:59.215Z,101665.22
2023-06-29T21:31:27.990Z,101714.41
2023-06-29T21:33:57.323Z,101715.16
2023-06-29T21:36:26.215Z,101713.81
2023-06-29T21:38:55.143Z,101714.41
2023-06-29T21:41:24.936Z,101700.66
2023-06-29T21:43:53.401Z,101712.31
2023-06-29T21:46:21.905Z,101713.72
2023-06-29T21:48:50.530Z,101712.50
2023-06-29T21:51:18.804Z,101723.53
2023-06-29T21:53:47.524Z,101726.31
2023-06-29T21:56:26.105Z,101725.41
2023-06-29T21:58:57.036Z,101717.47
2023-06-29T22:01:25.343Z,101711.78
2023-06-29T22:03:54.033Z,101706.91
2023-06-29T22:06:22.521Z,101688.50
2023-06-29T22:08:50.883Z,101707.41
2023-06-29T22:11:20.998Z,101675.16
2023-06-29T22:13:50.343Z,101685.97
2023-06-29T22:16:21.732Z,101701.59
2023-06-29T22:18:52.078Z,101697.78
2023-06-29T22:21:22.627Z,101709.16
2023-06-29T22:23:52.468Z,101679.94
2023-06-29T22:26:21.610Z,101682.53
2023-06-29T22:28:50.776Z,101691.13
2023-06-29T22:31:20.644Z,101690.31
2023-06-29T22:33:49.885Z,101675.88
2023-06-29T22:36:19.344Z,101691.75
2023-06-29T22:38:48.023Z,101686.06
2023-06-29T22:41:16.658Z,101698.03
2023-06-29T22:43:44.944Z,101684.91
2023-06-29T22:46:13.242Z,101665.75
2023-06-29T22:48:45.140Z,101689.88
2023-06-29T22:51:15.033Z,101710.09
2023-06-29T22:53:43.257Z,101689.16
2023-06-29T22:56:11.454Z,101700.91
2023-06-29T22:58:40.921Z,101701.38
2023-06-29T23:01:09.097Z,101692.88
2023-06-29T23:03:37.605Z,101709.03
2023-06-29T23:06:08.314Z,101711.22
2023-06-29T23:08:37.064Z,101690.25
2023-06-29T23:11:06.062Z,101712.78
2023-06-29T23:13:41.519Z,101702.22
2023-06-29T23:16:09.823Z,101714.47
2023-06-29T23:18:40.072Z,101715.53
2023-06-29T23:21:09.780Z,101700.22
2023-06-29T23:23:38.068Z,101721.06
2023-06-29T23:26:08.077Z,101721.91
2023-06-29T23:28:37.208Z,101705.13
2023-06-29T23:31:05.587Z,101702.13
2023-06-29T23:33:33.822Z,101715.75
2023-06-29T23:36:02.065Z,101661.31
2023-06-29T23:38:31.714Z,101716.75
2023-06-29T23:41:00.573Z,101699.06
2023-06-29T23:43:29.025Z,101700.44
2023-06-29T23:45:57.363Z,101704.63
2023-06-29T23:48:25.621Z,101706.50
2023-06-29T23:50:53.864Z,101697.09
2023-06-29T23:53:22.191Z,101696.41
2023-06-29T23:55:51.785Z,101700.75
2023-06-29T23:58:19.953Z,101696.25
